Estación Meteorológica Peña el Pijo (Robertgarden) [ 07/19/18 09:34:35 CEST ]

Fecha Hora Presion(HPa) Temp (°C) Humedad % Rocio (°C) Viento ( m/s) Direccion Lluvia 1Hora(mm) Lluvia 24H(mm) LLuvia Total(mm)
2017-Dec-17 01:02:01 1012.900 -1.8 81 -4.6         21.23
2017-Dec-17 02:02:20 1012.900 -2.6 82 -5.3         21.23
2017-Dec-17 03:02:04 1013.200 -2.8 83 -5.3         21.23
2017-Dec-17 04:05:14 1013.200 -3.1 84 -5.5         21.23
2017-Dec-17 05:01:51 1013.100 -3.5 84 -5.8         21.23
2017-Dec-17 06:01:58 1013.600 -3.7 84 -6.0         21.23
2017-Dec-17 07:01:54 1013.600 -4.1 84 -6.4         21.23
2017-Dec-17 08:01:59 1013.800 -4.7 84 -7.0         21.23
2017-Dec-17 09:01:50 1014.500 -5.1 84 -7.4         21.23
2017-Dec-17 10:01:49 1015.000 -0.9 86 -2.9         21.23
2017-Dec-17 11:01:44 1015.700 2.9 80 -0.2         21.23
2017-Dec-17 12:01:47 1015.400 5.6 62 -1.1         21.23
2017-Dec-17 13:01:45 1014.600 6.4 52 -2.8         21.23
2017-Dec-17 14:01:50 1014.300 7.9 46 -3.1         21.23
2017-Dec-17 15:01:44 1014.300 7.5 41 -4.9         21.23
2017-Dec-17 16:01:40 1014.300 7.5 42 -4.6         21.23
2017-Dec-17 17:01:44 1014.800 5.1 47 -5.4         21.23
2017-Dec-17 18:01:44 1015.300 2.9 54 -5.5         21.23
2017-Dec-17 19:01:35 1016.500 0.6 62 -5.9         21.23
2017-Dec-17 20:01:41 1017.500 -1.6 68 -6.7         21.23
2017-Dec-17 21:01:37 1018.000 -1.8 72 -6.2         21.23
2017-Dec-17 22:01:44 1018.100 -2.2 73 -6.4         21.23
2017-Dec-17 23:01:39 1018.000 -2.4 75 -6.2         21.23

Temperatura Máxima:    Temperatura Mínima:-5°
Presión Máxima:1018.100 Hpa    Presión Mínima:1012.900 Hpa


Volver